sensor_id;sensor_type;location;lat;lon;timestamp;P1;durP1;ratioP1;P2;durP2;ratioP2
16403;SDS011;8311;50.158;8.642;2023-09-19T00:00:45;1.30;;;1.00;;
16403;SDS011;8311;50.158;8.642;2023-09-19T00:03:40;3.15;;;1.25;;
16403;SDS011;8311;50.158;8.642;2023-09-19T00:06:36;1.60;;;1.08;;
16403;SDS011;8311;50.158;8.642;2023-09-19T00:09:30;1.75;;;1.20;;
16403;SDS011;8311;50.158;8.642;2023-09-19T00:12:23;1.60;;;1.00;;
16403;SDS011;8311;50.158;8.642;2023-09-19T00:15:17;1.75;;;1.10;;
16403;SDS011;8311;50.158;8.642;2023-09-19T00:18:10;1.20;;;0.80;;
16403;SDS011;8311;50.158;8.642;2023-09-19T00:21:07;1.90;;;1.02;;
16403;SDS011;8311;50.158;8.642;2023-09-19T00:24:03;2.35;;;1.20;;
16403;SDS011;8311;50.158;8.642;2023-09-19T00:26:57;1.58;;;1.00;;
16403;SDS011;8311;50.158;8.642;2023-09-19T00:29:50;1.80;;;1.23;;
16403;SDS011;8311;50.158;8.642;2023-09-19T00:32:45;1.90;;;1.00;;
16403;SDS011;8311;50.158;8.642;2023-09-19T00:35:39;1.35;;;1.00;;
16403;SDS011;8311;50.158;8.642;2023-09-19T00:38:40;1.33;;;0.98;;
16403;SDS011;8311;50.158;8.642;2023-09-19T00:41:34;1.80;;;1.20;;
16403;SDS011;8311;50.158;8.642;2023-09-19T00:44:28;1.00;;;0.80;;
16403;SDS011;8311;50.158;8.642;2023-09-19T00:47:21;1.52;;;1.00;;
16403;SDS011;8311;50.158;8.642;2023-09-19T00:50:16;1.23;;;0.90;;
16403;SDS011;8311;50.158;8.642;2023-09-19T00:53:12;1.35;;;1.17;;
16403;SDS011;8311;50.158;8.642;2023-09-19T00:56:10;1.65;;;1.15;;
16403;SDS011;8311;50.158;8.642;2023-09-19T00:59:04;1.38;;;1.15;;
16403;SDS011;8311;50.158;8.642;2023-09-19T01:01:57;1.75;;;1.20;;
16403;SDS011;8311;50.158;8.642;2023-09-19T01:04:51;1.88;;;1.15;;
16403;SDS011;8311;50.158;8.642;2023-09-19T01:07:45;1.35;;;0.93;;
16403;SDS011;8311;50.158;8.642;2023-09-19T01:10:51;1.38;;;1.10;;
16403;SDS011;8311;50.158;8.642;2023-09-19T01:13:50;2.30;;;1.30;;
16403;SDS011;8311;50.158;8.642;2023-09-19T01:16:53;1.67;;;0.98;;
16403;SDS011;8311;50.158;8.642;2023-09-19T01:23:13;1.73;;;0.93;;
16403;SDS011;8311;50.158;8.642;2023-09-19T01:26:15;1.25;;;0.95;;
16403;SDS011;8311;50.158;8.642;2023-09-19T01:29:23;1.92;;;1.15;;
16403;SDS011;8311;50.158;8.642;2023-09-19T01:32:34;1.00;;;0.95;;
16403;SDS011;8311;50.158;8.642;2023-09-19T01:35:30;1.77;;;1.00;;
16403;SDS011;8311;50.158;8.642;2023-09-19T01:38:23;2.75;;;1.10;;
16403;SDS011;8311;50.158;8.642;2023-09-19T01:41:24;1.15;;;0.90;;
16403;SDS011;8311;50.158;8.642;2023-09-19T01:44:22;1.27;;;0.90;;
16403;SDS011;8311;50.158;8.642;2023-09-19T01:47:23;1.45;;;1.00;;
16403;SDS011;8311;50.158;8.642;2023-09-19T01:50:28;2.03;;;1.20;;
16403;SDS011;8311;50.158;8.642;2023-09-19T01:53:27;1.77;;;0.90;;
16403;SDS011;8311;50.158;8.642;2023-09-19T01:56:28;1.50;;;0.82;;
16403;SDS011;8311;50.158;8.642;2023-09-19T01:59:28;2.03;;;0.90;;
16403;SDS011;8311;50.158;8.642;2023-09-19T02:02:27;2.10;;;1.10;;
16403;SDS011;8311;50.158;8.642;2023-09-19T02:05:22;1.80;;;1.20;;
16403;SDS011;8311;50.158;8.642;2023-09-19T02:08:18;1.40;;;0.90;;
16403;SDS011;8311;50.158;8.642;2023-09-19T02:11:11;0.88;;;0.85;;
16403;SDS011;8311;50.158;8.642;2023-09-19T02:14:06;0.85;;;0.80;;
16403;SDS011;8311;50.158;8.642;2023-09-19T02:16:59;1.20;;;1.00;;
16403;SDS011;8311;50.158;8.642;2023-09-19T02:19:54;1.83;;;1.08;;
16403;SDS011;8311;50.158;8.642;2023-09-19T02:22:47;1.27;;;0.82;;
16403;SDS011;8311;50.158;8.642;2023-09-19T02:25:42;1.33;;;0.90;;
16403;SDS011;8311;50.158;8.642;2023-09-19T02:28:35;2.15;;;1.10;;
16403;SDS011;8311;50.158;8.642;2023-09-19T02:31:29;1.45;;;0.95;;
16403;SDS011;8311;50.158;8.642;2023-09-19T02:34:23;1.23;;;0.90;;
16403;SDS011;8311;50.158;8.642;2023-09-19T02:37:17;1.50;;;0.98;;
16403;SDS011;8311;50.158;8.642;2023-09-19T02:40:11;0.93;;;0.80;;
16403;SDS011;8311;50.158;8.642;2023-09-19T02:43:12;1.80;;;0.93;;
16403;SDS011;8311;50.158;8.642;2023-09-19T02:46:06;1.65;;;1.17;;
16403;SDS011;8311;50.158;8.642;2023-09-19T02:48:59;0.98;;;0.77;;
16403;SDS011;8311;50.158;8.642;2023-09-19T02:51:53;2.10;;;1.00;;
16403;SDS011;8311;50.158;8.642;2023-09-19T02:54:47;1.33;;;0.85;;
16403;SDS011;8311;50.158;8.642;2023-09-19T02:57:41;1.48;;;0.90;;
16403;SDS011;8311;50.158;8.642;2023-09-19T03:00:39;0.93;;;0.77;;
16403;SDS011;8311;50.158;8.642;2023-09-19T03:03:34;1.17;;;0.98;;
16403;SDS011;8311;50.158;8.642;2023-09-19T03:06:29;1.05;;;0.80;;
16403;SDS011;8311;50.158;8.642;2023-09-19T03:09:22;1.45;;;0.98;;
16403;SDS011;8311;50.158;8.642;2023-09-19T03:12:16;2.10;;;1.10;;
16403;SDS011;8311;50.158;8.642;2023-09-19T03:15:09;1.10;;;1.00;;
16403;SDS011;8311;50.158;8.642;2023-09-19T03:18:04;0.80;;;0.80;;
16403;SDS011;8311;50.158;8.642;2023-09-19T03:20:58;1.67;;;0.85;;
16403;SDS011;8311;50.158;8.642;2023-09-19T03:23:52;1.58;;;0.77;;
16403;SDS011;8311;50.158;8.642;2023-09-19T03:26:46;2.88;;;1.13;;
16403;SDS011;8311;50.158;8.642;2023-09-19T03:29:39;3.03;;;1.30;;
16403;SDS011;8311;50.158;8.642;2023-09-19T03:32:33;1.45;;;0.88;;
16403;SDS011;8311;50.158;8.642;2023-09-19T03:35:28;1.85;;;1.20;;
16403;SDS011;8311;50.158;8.642;2023-09-19T03:38:22;1.55;;;0.93;;
16403;SDS011;8311;50.158;8.642;2023-09-19T03:41:15;1.58;;;1.00;;
16403;SDS011;8311;50.158;8.642;2023-09-19T03:44:09;1.60;;;1.10;;
16403;SDS011;8311;50.158;8.642;2023-09-19T03:47:02;1.55;;;0.90;;
16403;SDS011;8311;50.158;8.642;2023-09-19T03:49:56;1.42;;;0.93;;
16403;SDS011;8311;50.158;8.642;2023-09-19T03:52:50;1.08;;;0.98;;
16403;SDS011;8311;50.158;8.642;2023-09-19T03:55:48;1.60;;;1.00;;
16403;SDS011;8311;50.158;8.642;2023-09-19T03:58:42;1.67;;;0.93;;
16403;SDS011;8311;50.158;8.642;2023-09-19T04:01:35;1.33;;;0.90;;
16403;SDS011;8311;50.158;8.642;2023-09-19T04:04:29;1.50;;;1.13;;
16403;SDS011;8311;50.158;8.642;2023-09-19T04:07:22;1.58;;;1.08;;
16403;SDS011;8311;50.158;8.642;2023-09-19T04:10:18;0.98;;;0.90;;
16403;SDS011;8311;50.158;8.642;2023-09-19T04:13:12;1.77;;;0.90;;
16403;SDS011;8311;50.158;8.642;2023-09-19T04:16:05;1.15;;;0.98;;
16403;SDS011;8311;50.158;8.642;2023-09-19T04:18:59;0.95;;;0.65;;
16403;SDS011;8311;50.158;8.642;2023-09-19T04:21:52;1.27;;;0.88;;
16403;SDS011;8311;50.158;8.642;2023-09-19T04:24:45;1.90;;;1.08;;
16403;SDS011;8311;50.158;8.642;2023-09-19T04:27:39;1.52;;;0.98;;
16403;SDS011;8311;50.158;8.642;2023-09-19T04:30:33;1.63;;;1.02;;
16403;SDS011;8311;50.158;8.642;2023-09-19T04:33:26;0.70;;;0.70;;
16403;SDS011;8311;50.158;8.642;2023-09-19T04:36:20;1.45;;;1.02;;
16403;SDS011;8311;50.158;8.642;2023-09-19T04:39:25;1.38;;;1.00;;
16403;SDS011;8311;50.158;8.642;2023-09-19T04:42:19;2.50;;;1.05;;
16403;SDS011;8311;50.158;8.642;2023-09-19T04:45:14;2.33;;;1.10;;
16403;SDS011;8311;50.158;8.642;2023-09-19T04:48:08;2.08;;;1.10;;
16403;SDS011;8311;50.158;8.642;2023-09-19T04:51:01;1.27;;;0.80;;
16403;SDS011;8311;50.158;8.642;2023-09-19T04:53:56;1.63;;;1.10;;
16403;SDS011;8311;50.158;8.642;2023-09-19T04:56:50;1.30;;;0.85;;
16403;SDS011;8311;50.158;8.642;2023-09-19T04:59:43;1.27;;;0.90;;
16403;SDS011;8311;50.158;8.642;2023-09-19T05:02:37;1.27;;;1.10;;
16403;SDS011;8311;50.158;8.642;2023-09-19T05:05:32;0.90;;;0.80;;
16403;SDS011;8311;50.158;8.642;2023-09-19T05:08:25;0.75;;;0.75;;
16403;SDS011;8311;50.158;8.642;2023-09-19T05:11:19;1.05;;;0.82;;
16403;SDS011;8311;50.158;8.642;2023-09-19T05:14:13;1.70;;;0.98;;
16403;SDS011;8311;50.158;8.642;2023-09-19T05:17:07;1.65;;;1.00;;
16403;SDS011;8311;50.158;8.642;2023-09-19T05:20:01;2.70;;;1.20;;
16403;SDS011;8311;50.158;8.642;2023-09-19T05:22:58;2.25;;;1.00;;
16403;SDS011;8311;50.158;8.642;2023-09-19T05:25:54;1.70;;;1.00;;
16403;SDS011;8311;50.158;8.642;2023-09-19T05:28:50;2.42;;;1.45;;
16403;SDS011;8311;50.158;8.642;2023-09-19T05:31:44;1.98;;;1.08;;
16403;SDS011;8311;50.158;8.642;2023-09-19T05:34:38;2.53;;;1.33;;
16403;SDS011;8311;50.158;8.642;2023-09-19T05:37:32;2.60;;;1.23;;
16403;SDS011;8311;50.158;8.642;2023-09-19T05:40:26;1.67;;;1.08;;
16403;SDS011;8311;50.158;8.642;2023-09-19T05:43:19;2.60;;;1.25;;
16403;SDS011;8311;50.158;8.642;2023-09-19T05:46:12;3.63;;;1.20;;
16403;SDS011;8311;50.158;8.642;2023-09-19T05:49:07;3.15;;;1.30;;
16403;SDS011;8311;50.158;8.642;2023-09-19T05:52:00;1.58;;;0.93;;
16403;SDS011;8311;50.158;8.642;2023-09-19T05:54:54;3.00;;;1.30;;
16403;SDS011;8311;50.158;8.642;2023-09-19T05:57:49;2.92;;;1.25;;
16403;SDS011;8311;50.158;8.642;2023-09-19T06:00:44;1.60;;;1.20;;
16403;SDS011;8311;50.158;8.642;2023-09-19T06:03:38;1.55;;;1.15;;
16403;SDS011;8311;50.158;8.642;2023-09-19T06:06:32;2.20;;;1.38;;
16403;SDS011;8311;50.158;8.642;2023-09-19T06:09:25;1.83;;;1.00;;
16403;SDS011;8311;50.158;8.642;2023-09-19T06:12:20;3.33;;;1.58;;
16403;SDS011;8311;50.158;8.642;2023-09-19T06:15:14;2.55;;;1.52;;
16403;SDS011;8311;50.158;8.642;2023-09-19T06:18:11;3.50;;;1.45;;
16403;SDS011;8311;50.158;8.642;2023-09-19T06:21:07;2.60;;;1.13;;
16403;SDS011;8311;50.158;8.642;2023-09-19T06:24:00;3.38;;;1.38;;
16403;SDS011;8311;50.158;8.642;2023-09-19T06:26:54;2.75;;;1.38;;
16403;SDS011;8311;50.158;8.642;2023-09-19T06:29:48;3.58;;;1.70;;
16403;SDS011;8311;50.158;8.642;2023-09-19T06:32:42;2.90;;;1.30;;
16403;SDS011;8311;50.158;8.642;2023-09-19T06:35:36;4.70;;;1.45;;
16403;SDS011;8311;50.158;8.642;2023-09-19T06:38:29;2.50;;;1.30;;
16403;SDS011;8311;50.158;8.642;2023-09-19T06:41:23;2.30;;;1.40;;
16403;SDS011;8311;50.158;8.642;2023-09-19T06:44:16;3.40;;;1.38;;
16403;SDS011;8311;50.158;8.642;2023-09-19T06:47:10;5.15;;;1.55;;
16403;SDS011;8311;50.158;8.642;2023-09-19T06:50:04;2.42;;;1.27;;
16403;SDS011;8311;50.158;8.642;2023-09-19T06:53:05;3.47;;;1.63;;
16403;SDS011;8311;50.158;8.642;2023-09-19T06:55:58;4.45;;;1.60;;
16403;SDS011;8311;50.158;8.642;2023-09-19T06:58:52;2.17;;;1.50;;
16403;SDS011;8311;50.158;8.642;2023-09-19T07:01:45;3.15;;;1.58;;
16403;SDS011;8311;50.158;8.642;2023-09-19T07:04:40;3.42;;;1.50;;
16403;SDS011;8311;50.158;8.642;2023-09-19T07:07:34;2.70;;;1.45;;
16403;SDS011;8311;50.158;8.642;2023-09-19T07:10:27;1.75;;;1.02;;
16403;SDS011;8311;50.158;8.642;2023-09-19T07:13:21;3.40;;;1.30;;
16403;SDS011;8311;50.158;8.642;2023-09-19T07:16:15;3.03;;;1.60;;
16403;SDS011;8311;50.158;8.642;2023-09-19T07:19:19;2.20;;;1.25;;
16403;SDS011;8311;50.158;8.642;2023-09-19T07:22:13;2.75;;;1.33;;
16403;SDS011;8311;50.158;8.642;2023-09-19T07:25:07;3.75;;;1.42;;
16403;SDS011;8311;50.158;8.642;2023-09-19T07:28:01;1.90;;;1.20;;
16403;SDS011;8311;50.158;8.642;2023-09-19T07:30:54;2.55;;;1.17;;
16403;SDS011;8311;50.158;8.642;2023-09-19T07:33:47;3.40;;;1.17;;
16403;SDS011;8311;50.158;8.642;2023-09-19T07:36:41;4.43;;;1.60;;
16403;SDS011;8311;50.158;8.642;2023-09-19T07:39:36;4.18;;;1.45;;
16403;SDS011;8311;50.158;8.642;2023-09-19T07:42:32;3.92;;;1.33;;
16403;SDS011;8311;50.158;8.642;2023-09-19T07:45:26;3.70;;;1.52;;
16403;SDS011;8311;50.158;8.642;2023-09-19T07:48:21;2.28;;;1.30;;
16403;SDS011;8311;50.158;8.642;2023-09-19T07:51:16;2.42;;;1.40;;
16403;SDS011;8311;50.158;8.642;2023-09-19T07:54:10;2.22;;;1.13;;
16403;SDS011;8311;50.158;8.642;2023-09-19T07:57:05;2.45;;;1.50;;
16403;SDS011;8311;50.158;8.642;2023-09-19T07:59:59;3.28;;;1.60;;
16403;SDS011;8311;50.158;8.642;2023-09-19T08:02:52;3.30;;;1.80;;
16403;SDS011;8311;50.158;8.642;2023-09-19T08:05:55;2.83;;;1.30;;
16403;SDS011;8311;50.158;8.642;2023-09-19T08:08:50;2.53;;;1.52;;
16403;SDS011;8311;50.158;8.642;2023-09-19T08:11:45;3.95;;;1.45;;
16403;SDS011;8311;50.158;8.642;2023-09-19T08:14:39;1.85;;;1.20;;
16403;SDS011;8311;50.158;8.642;2023-09-19T08:17:33;4.40;;;1.20;;
16403;SDS011;8311;50.158;8.642;2023-09-19T08:20:27;1.88;;;1.27;;
16403;SDS011;8311;50.158;8.642;2023-09-19T08:23:21;2.30;;;1.35;;
16403;SDS011;8311;50.158;8.642;2023-09-19T08:26:14;2.40;;;1.33;;
16403;SDS011;8311;50.158;8.642;2023-09-19T08:29:07;3.97;;;1.42;;
16403;SDS011;8311;50.158;8.642;2023-09-19T08:32:04;2.63;;;1.50;;
16403;SDS011;8311;50.158;8.642;2023-09-19T08:34:58;2.33;;;1.48;;
16403;SDS011;8311;50.158;8.642;2023-09-19T08:37:51;2.58;;;1.25;;
16403;SDS011;8311;50.158;8.642;2023-09-19T08:40:44;2.50;;;1.30;;
16403;SDS011;8311;50.158;8.642;2023-09-19T08:43:37;2.53;;;1.10;;
16403;SDS011;8311;50.158;8.642;2023-09-19T08:46:31;5.15;;;1.40;;
16403;SDS011;8311;50.158;8.642;2023-09-19T08:49:37;3.20;;;1.13;;
16403;SDS011;8311;50.158;8.642;2023-09-19T08:52:42;3.13;;;1.42;;
16403;SDS011;8311;50.158;8.642;2023-09-19T08:55:40;3.53;;;1.30;;
16403;SDS011;8311;50.158;8.642;2023-09-19T08:58:38;2.85;;;1.40;;
16403;SDS011;8311;50.158;8.642;2023-09-19T09:01:38;2.90;;;1.60;;
16403;SDS011;8311;50.158;8.642;2023-09-19T09:04:34;2.33;;;1.30;;
16403;SDS011;8311;50.158;8.642;2023-09-19T09:07:28;3.22;;;1.65;;
16403;SDS011;8311;50.158;8.642;2023-09-19T09:10:21;1.85;;;1.20;;
16403;SDS011;8311;50.158;8.642;2023-09-19T09:13:15;1.67;;;1.10;;
16403;SDS011;8311;50.158;8.642;2023-09-19T09:16:10;1.88;;;1.27;;
16403;SDS011;8311;50.158;8.642;2023-09-19T09:19:04;1.27;;;1.00;;
16403;SDS011;8311;50.158;8.642;2023-09-19T09:22:06;3.03;;;1.45;;
16403;SDS011;8311;50.158;8.642;2023-09-19T09:25:00;1.42;;;1.02;;
16403;SDS011;8311;50.158;8.642;2023-09-19T09:27:58;1.58;;;1.20;;
16403;SDS011;8311;50.158;8.642;2023-09-19T09:30:52;1.67;;;1.10;;
16403;SDS011;8311;50.158;8.642;2023-09-19T09:33:52;3.40;;;1.60;;
16403;SDS011;8311;50.158;8.642;2023-09-19T09:36:47;2.45;;;1.38;;
16403;SDS011;8311;50.158;8.642;2023-09-19T09:39:49;1.17;;;1.05;;
16403;SDS011;8311;50.158;8.642;2023-09-19T09:42:48;1.67;;;1.25;;
16403;SDS011;8311;50.158;8.642;2023-09-19T09:45:44;2.75;;;1.27;;
16403;SDS011;8311;50.158;8.642;2023-09-19T09:48:40;1.70;;;1.30;;
16403;SDS011;8311;50.158;8.642;2023-09-19T09:51:37;2.38;;;1.10;;
16403;SDS011;8311;50.158;8.642;2023-09-19T09:54:33;1.50;;;1.27;;
16403;SDS011;8311;50.158;8.642;2023-09-19T09:57:30;1.75;;;1.17;;
16403;SDS011;8311;50.158;8.642;2023-09-19T10:00:25;3.35;;;1.27;;
16403;SDS011;8311;50.158;8.642;2023-09-19T10:03:31;1.77;;;1.33;;
16403;SDS011;8311;50.158;8.642;2023-09-19T10:06:40;2.25;;;1.30;;
16403;SDS011;8311;50.158;8.642;2023-09-19T10:09:44;3.15;;;1.42;;
16403;SDS011;8311;50.158;8.642;2023-09-19T10:12:41;3.40;;;1.17;;
16403;SDS011;8311;50.158;8.642;2023-09-19T10:15:37;2.75;;;1.33;;
16403;SDS011;8311;50.158;8.642;2023-09-19T10:18:32;3.10;;;1.30;;
16403;SDS011;8311;50.158;8.642;2023-09-19T10:21:31;2.67;;;1.35;;
16403;SDS011;8311;50.158;8.642;2023-09-19T10:24:25;3.10;;;1.25;;
16403;SDS011;8311;50.158;8.642;2023-09-19T10:27:22;3.40;;;1.50;;
16403;SDS011;8311;50.158;8.642;2023-09-19T10:30:21;3.67;;;1.70;;
16403;SDS011;8311;50.158;8.642;2023-09-19T10:33:16;2.92;;;1.48;;
16403;SDS011;8311;50.158;8.642;2023-09-19T10:36:12;4.90;;;1.48;;
16403;SDS011;8311;50.158;8.642;2023-09-19T10:39:06;2.30;;;1.30;;
16403;SDS011;8311;50.158;8.642;2023-09-19T10:42:03;3.10;;;1.65;;
16403;SDS011;8311;50.158;8.642;2023-09-19T10:45:00;3.15;;;1.38;;
16403;SDS011;8311;50.158;8.642;2023-09-19T10:48:00;5.00;;;2.13;;
16403;SDS011;8311;50.158;8.642;2023-09-19T10:50:57;1.90;;;1.20;;
16403;SDS011;8311;50.158;8.642;2023-09-19T10:53:58;3.25;;;1.48;;
16403;SDS011;8311;50.158;8.642;2023-09-19T10:56:56;3.30;;;2.08;;
16403;SDS011;8311;50.158;8.642;2023-09-19T11:00:02;3.10;;;1.20;;
16403;SDS011;8311;50.158;8.642;2023-09-19T11:03:18;4.18;;;1.80;;
16403;SDS011;8311;50.158;8.642;2023-09-19T11:06:14;2.83;;;1.50;;
16403;SDS011;8311;50.158;8.642;2023-09-19T11:09:10;2.58;;;1.42;;
16403;SDS011;8311;50.158;8.642;2023-09-19T11:16:03;2.67;;;1.45;;
16403;SDS011;8311;50.158;8.642;2023-09-19T11:18:59;2.50;;;1.38;;
16403;SDS011;8311;50.158;8.642;2023-09-19T11:21:56;2.65;;;1.55;;
16403;SDS011;8311;50.158;8.642;2023-09-19T11:24:48;2.28;;;1.42;;
16403;SDS011;8311;50.158;8.642;2023-09-19T11:27:52;5.85;;;1.63;;
16403;SDS011;8311;50.158;8.642;2023-09-19T11:34:42;3.00;;;1.55;;
16403;SDS011;8311;50.158;8.642;2023-09-19T11:44:34;4.95;;;1.58;;
16403;SDS011;8311;50.158;8.642;2023-09-19T11:47:29;4.55;;;1.73;;
16403;SDS011;8311;50.158;8.642;2023-09-19T11:50:24;3.25;;;1.48;;
16403;SDS011;8311;50.158;8.642;2023-09-19T11:53:19;3.97;;;1.75;;
16403;SDS011;8311;50.158;8.642;2023-09-19T11:56:14;3.17;;;1.60;;
16403;SDS011;8311;50.158;8.642;2023-09-19T11:59:08;4.22;;;1.88;;
16403;SDS011;8311;50.158;8.642;2023-09-19T12:02:03;4.43;;;1.90;;
16403;SDS011;8311;50.158;8.642;2023-09-19T12:04:58;3.20;;;1.63;;
16403;SDS011;8311;50.158;8.642;2023-09-19T12:07:51;2.97;;;1.38;;
16403;SDS011;8311;50.158;8.642;2023-09-19T12:10:45;5.40;;;2.08;;
16403;SDS011;8311;50.158;8.642;2023-09-19T12:13:43;4.50;;;2.00;;
16403;SDS011;8311;50.158;8.642;2023-09-19T12:16:38;3.58;;;1.70;;
16403;SDS011;8311;50.158;8.642;2023-09-19T12:19:34;3.97;;;1.83;;
16403;SDS011;8311;50.158;8.642;2023-09-19T12:22:28;3.88;;;1.70;;
16403;SDS011;8311;50.158;8.642;2023-09-19T12:25:40;4.55;;;1.70;;
16403;SDS011;8311;50.158;8.642;2023-09-19T12:28:40;3.15;;;1.65;;
16403;SDS011;8311;50.158;8.642;2023-09-19T12:31:34;4.82;;;1.60;;
16403;SDS011;8311;50.158;8.642;2023-09-19T12:34:28;4.93;;;2.00;;
16403;SDS011;8311;50.158;8.642;2023-09-19T12:37:27;4.32;;;1.88;;
16403;SDS011;8311;50.158;8.642;2023-09-19T12:40:22;4.03;;;1.58;;
16403;SDS011;8311;50.158;8.642;2023-09-19T12:43:21;3.45;;;1.60;;
16403;SDS011;8311;50.158;8.642;2023-09-19T12:46:14;3.83;;;1.63;;
16403;SDS011;8311;50.158;8.642;2023-09-19T12:49:15;3.25;;;1.60;;
16403;SDS011;8311;50.158;8.642;2023-09-19T12:52:09;4.43;;;1.48;;
16403;SDS011;8311;50.158;8.642;2023-09-19T12:55:04;4.47;;;1.48;;
16403;SDS011;8311;50.158;8.642;2023-09-19T12:57:59;3.00;;;1.55;;
16403;SDS011;8311;50.158;8.642;2023-09-19T13:01:00;4.88;;;1.80;;
16403;SDS011;8311;50.158;8.642;2023-09-19T13:04:15;4.53;;;1.70;;
16403;SDS011;8311;50.158;8.642;2023-09-19T13:14:14;3.38;;;1.70;;
16403;SDS011;8311;50.158;8.642;2023-09-19T13:17:10;2.13;;;1.30;;
16403;SDS011;8311;50.158;8.642;2023-09-19T13:20:08;5.25;;;1.70;;
16403;SDS011;8311;50.158;8.642;2023-09-19T13:23:25;3.15;;;1.70;;
16403;SDS011;8311;50.158;8.642;2023-09-19T13:26:20;3.63;;;1.65;;
16403;SDS011;8311;50.158;8.642;2023-09-19T13:29:14;4.78;;;1.67;;
16403;SDS011;8311;50.158;8.642;2023-09-19T13:32:09;2.88;;;1.15;;
16403;SDS011;8311;50.158;8.642;2023-09-19T13:35:03;3.63;;;2.00;;
16403;SDS011;8311;50.158;8.642;2023-09-19T13:38:00;4.40;;;1.65;;
16403;SDS011;8311;50.158;8.642;2023-09-19T13:40:53;5.22;;;1.73;;
16403;SDS011;8311;50.158;8.642;2023-09-19T13:43:48;3.92;;;1.88;;
16403;SDS011;8311;50.158;8.642;2023-09-19T13:46:41;3.00;;;1.33;;
16403;SDS011;8311;50.158;8.642;2023-09-19T13:49:37;3.03;;;1.35;;
16403;SDS011;8311;50.158;8.642;2023-09-19T13:52:31;2.58;;;1.30;;
16403;SDS011;8311;50.158;8.642;2023-09-19T13:55:24;5.88;;;1.45;;
16403;SDS011;8311;50.158;8.642;2023-09-19T13:58:17;4.32;;;1.67;;
16403;SDS011;8311;50.158;8.642;2023-09-19T14:01:11;3.65;;;1.58;;
16403;SDS011;8311;50.158;8.642;2023-09-19T14:04:05;3.72;;;1.58;;
16403;SDS011;8311;50.158;8.642;2023-09-19T14:06:58;2.42;;;1.40;;
16403;SDS011;8311;50.158;8.642;2023-09-19T14:09:52;3.28;;;1.58;;
16403;SDS011;8311;50.158;8.642;2023-09-19T14:12:45;3.05;;;1.60;;
16403;SDS011;8311;50.158;8.642;2023-09-19T14:15:39;3.50;;;1.60;;
16403;SDS011;8311;50.158;8.642;2023-09-19T14:18:34;3.25;;;1.50;;
16403;SDS011;8311;50.158;8.642;2023-09-19T14:21:28;2.40;;;1.38;;
16403;SDS011;8311;50.158;8.642;2023-09-19T14:24:22;3.55;;;1.20;;
16403;SDS011;8311;50.158;8.642;2023-09-19T14:27:15;3.70;;;1.70;;
16403;SDS011;8311;50.158;8.642;2023-09-19T14:30:10;2.60;;;1.45;;
16403;SDS011;8311;50.158;8.642;2023-09-19T14:33:04;3.30;;;1.52;;
16403;SDS011;8311;50.158;8.642;2023-09-19T14:36:03;2.90;;;1.27;;
16403;SDS011;8311;50.158;8.642;2023-09-19T14:38:57;3.00;;;1.70;;
16403;SDS011;8311;50.158;8.642;2023-09-19T14:41:50;2.67;;;1.40;;
16403;SDS011;8311;50.158;8.642;2023-09-19T14:44:44;2.05;;;1.30;;
16403;SDS011;8311;50.158;8.642;2023-09-19T14:47:38;2.35;;;1.42;;
16403;SDS011;8311;50.158;8.642;2023-09-19T14:50:32;2.30;;;1.30;;
16403;SDS011;8311;50.158;8.642;2023-09-19T14:53:27;1.70;;;0.90;;
16403;SDS011;8311;50.158;8.642;2023-09-19T14:56:20;2.65;;;1.13;;
16403;SDS011;8311;50.158;8.642;2023-09-19T14:59:15;1.95;;;1.20;;
16403;SDS011;8311;50.158;8.642;2023-09-19T15:02:08;1.73;;;1.05;;
16403;SDS011;8311;50.158;8.642;2023-09-19T15:05:01;2.60;;;1.30;;
16403;SDS011;8311;50.158;8.642;2023-09-19T15:07:55;2.80;;;1.55;;
16403;SDS011;8311;50.158;8.642;2023-09-19T15:10:51;2.13;;;1.25;;
16403;SDS011;8311;50.158;8.642;2023-09-19T15:13:46;2.10;;;1.08;;
16403;SDS011;8311;50.158;8.642;2023-09-19T15:16:40;1.88;;;1.17;;
16403;SDS011;8311;50.158;8.642;2023-09-19T15:19:35;1.88;;;1.13;;
16403;SDS011;8311;50.158;8.642;2023-09-19T15:22:29;3.90;;;1.40;;
16403;SDS011;8311;50.158;8.642;2023-09-19T15:25:22;2.00;;;1.08;;
16403;SDS011;8311;50.158;8.642;2023-09-19T15:28:18;2.13;;;1.20;;
16403;SDS011;8311;50.158;8.642;2023-09-19T15:31:14;2.88;;;1.23;;
16403;SDS011;8311;50.158;8.642;2023-09-19T15:34:07;1.90;;;1.10;;
16403;SDS011;8311;50.158;8.642;2023-09-19T15:37:00;4.00;;;1.30;;
16403;SDS011;8311;50.158;8.642;2023-09-19T15:39:53;2.60;;;1.25;;
16403;SDS011;8311;50.158;8.642;2023-09-19T15:42:46;2.67;;;1.52;;
16403;SDS011;8311;50.158;8.642;2023-09-19T15:45:41;3.25;;;1.30;;
16403;SDS011;8311;50.158;8.642;2023-09-19T15:48:34;1.65;;;1.13;;
16403;SDS011;8311;50.158;8.642;2023-09-19T15:51:28;1.67;;;1.00;;
16403;SDS011;8311;50.158;8.642;2023-09-19T15:54:22;1.98;;;1.20;;
16403;SDS011;8311;50.158;8.642;2023-09-19T15:57:18;1.83;;;1.10;;
16403;SDS011;8311;50.158;8.642;2023-09-19T16:00:12;2.08;;;1.25;;
16403;SDS011;8311;50.158;8.642;2023-09-19T16:03:09;1.55;;;1.15;;
16403;SDS011;8311;50.158;8.642;2023-09-19T16:06:07;1.75;;;0.98;;
16403;SDS011;8311;50.158;8.642;2023-09-19T16:09:01;2.35;;;1.17;;
16403;SDS011;8311;50.158;8.642;2023-09-19T16:11:55;2.28;;;1.25;;
16403;SDS011;8311;50.158;8.642;2023-09-19T16:14:49;2.20;;;1.20;;
16403;SDS011;8311;50.158;8.642;2023-09-19T16:17:42;1.67;;;1.00;;
16403;SDS011;8311;50.158;8.642;2023-09-19T16:20:37;1.65;;;1.10;;
16403;SDS011;8311;50.158;8.642;2023-09-19T16:23:30;1.17;;;0.90;;
16403;SDS011;8311;50.158;8.642;2023-09-19T16:26:23;0.98;;;0.88;;
16403;SDS011;8311;50.158;8.642;2023-09-19T16:29:17;2.05;;;1.25;;
16403;SDS011;8311;50.158;8.642;2023-09-19T16:32:12;2.17;;;1.15;;
16403;SDS011;8311;50.158;8.642;2023-09-19T16:35:06;1.50;;;0.80;;
16403;SDS011;8311;50.158;8.642;2023-09-19T16:38:02;2.00;;;1.00;;
16403;SDS011;8311;50.158;8.642;2023-09-19T16:40:56;1.45;;;1.00;;
16403;SDS011;8311;50.158;8.642;2023-09-19T16:43:51;3.35;;;1.23;;
16403;SDS011;8311;50.158;8.642;2023-09-19T16:46:44;1.95;;;1.08;;
16403;SDS011;8311;50.158;8.642;2023-09-19T16:49:38;1.98;;;1.35;;
16403;SDS011;8311;50.158;8.642;2023-09-19T16:52:33;1.85;;;1.10;;
16403;SDS011;8311;50.158;8.642;2023-09-19T16:55:28;3.25;;;1.27;;
16403;SDS011;8311;50.158;8.642;2023-09-19T16:58:21;1.60;;;1.25;;
16403;SDS011;8311;50.158;8.642;2023-09-19T17:01:15;1.50;;;1.02;;
16403;SDS011;8311;50.158;8.642;2023-09-19T17:04:11;2.40;;;1.40;;
16403;SDS011;8311;50.158;8.642;2023-09-19T17:07:03;1.92;;;0.88;;
16403;SDS011;8311;50.158;8.642;2023-09-19T17:09:56;2.78;;;1.20;;
16403;SDS011;8311;50.158;8.642;2023-09-19T17:12:51;2.88;;;1.20;;
16403;SDS011;8311;50.158;8.642;2023-09-19T17:15:46;1.60;;;1.00;;
16403;SDS011;8311;50.158;8.642;2023-09-19T17:18:39;1.67;;;1.20;;
16403;SDS011;8311;50.158;8.642;2023-09-19T17:21:35;1.88;;;1.10;;
16403;SDS011;8311;50.158;8.642;2023-09-19T17:24:28;2.92;;;1.30;;
16403;SDS011;8311;50.158;8.642;2023-09-19T17:27:21;1.55;;;1.00;;
16403;SDS011;8311;50.158;8.642;2023-09-19T17:30:16;2.15;;;1.13;;
16403;SDS011;8311;50.158;8.642;2023-09-19T17:33:09;2.83;;;1.30;;
16403;SDS011;8311;50.158;8.642;2023-09-19T17:36:06;5.40;;;1.40;;
16403;SDS011;8311;50.158;8.642;2023-09-19T17:39:01;2.35;;;1.23;;
16403;SDS011;8311;50.158;8.642;2023-09-19T17:41:55;3.03;;;1.45;;
16403;SDS011;8311;50.158;8.642;2023-09-19T17:44:48;1.38;;;0.93;;
16403;SDS011;8311;50.158;8.642;2023-09-19T17:47:44;1.23;;;0.90;;
16403;SDS011;8311;50.158;8.642;2023-09-19T17:50:37;1.88;;;1.10;;
16403;SDS011;8311;50.158;8.642;2023-09-19T17:53:31;1.77;;;1.00;;
16403;SDS011;8311;50.158;8.642;2023-09-19T17:56:24;2.00;;;1.08;;
16403;SDS011;8311;50.158;8.642;2023-09-19T17:59:18;1.83;;;0.90;;
16403;SDS011;8311;50.158;8.642;2023-09-19T18:02:10;3.30;;;1.08;;
16403;SDS011;8311;50.158;8.642;2023-09-19T18:05:05;1.85;;;1.10;;
16403;SDS011;8311;50.158;8.642;2023-09-19T18:07:59;1.92;;;0.90;;
16403;SDS011;8311;50.158;8.642;2023-09-19T18:10:53;1.95;;;1.15;;
16403;SDS011;8311;50.158;8.642;2023-09-19T18:13:46;2.80;;;1.00;;
16403;SDS011;8311;50.158;8.642;2023-09-19T18:16:43;2.72;;;1.40;;